sensor_id;sensor_type;location;lat;lon;timestamp;P1;durP1;ratioP1;P2;durP2;ratioP2
12480;SDS011;6305;48.398;11.762;2024-01-30T00:01:40;71.43;;;37.80;;
12480;SDS011;6305;48.398;11.762;2024-01-30T00:04:16;68.63;;;37.60;;
12480;SDS011;6305;48.398;11.762;2024-01-30T00:06:58;71.13;;;36.33;;
12480;SDS011;6305;48.398;11.762;2024-01-30T00:09:34;70.80;;;36.67;;
12480;SDS011;6305;48.398;11.762;2024-01-30T00:12:02;66.10;;;35.73;;
12480;SDS011;6305;48.398;11.762;2024-01-30T00:14:32;68.43;;;36.00;;
12480;SDS011;6305;48.398;11.762;2024-01-30T00:17:06;65.77;;;34.37;;
12480;SDS011;6305;48.398;11.762;2024-01-30T00:19:49;67.50;;;34.63;;
12480;SDS011;6305;48.398;11.762;2024-01-30T00:22:25;66.50;;;35.60;;
12480;SDS011;6305;48.398;11.762;2024-01-30T00:25:03;66.87;;;35.53;;
12480;SDS011;6305;48.398;11.762;2024-01-30T00:27:37;67.17;;;35.20;;
12480;SDS011;6305;48.398;11.762;2024-01-30T00:30:14;64.07;;;34.00;;
12480;SDS011;6305;48.398;11.762;2024-01-30T00:32:57;71.57;;;36.70;;
12480;SDS011;6305;48.398;11.762;2024-01-30T00:35:30;73.60;;;36.60;;
12480;SDS011;6305;48.398;11.762;2024-01-30T00:38:01;68.43;;;36.53;;
12480;SDS011;6305;48.398;11.762;2024-01-30T00:40:38;68.70;;;37.47;;
12480;SDS011;6305;48.398;11.762;2024-01-30T00:43:10;66.77;;;36.30;;
12480;SDS011;6305;48.398;11.762;2024-01-30T00:45:56;75.23;;;38.83;;
12480;SDS011;6305;48.398;11.762;2024-01-30T00:48:32;76.10;;;38.83;;
12480;SDS011;6305;48.398;11.762;2024-01-30T00:51:16;75.30;;;39.53;;
12480;SDS011;6305;48.398;11.762;2024-01-30T00:53:47;72.57;;;39.43;;
12480;SDS011;6305;48.398;11.762;2024-01-30T00:56:25;73.10;;;38.17;;
12480;SDS011;6305;48.398;11.762;2024-01-30T00:58:59;77.27;;;39.13;;
12480;SDS011;6305;48.398;11.762;2024-01-30T01:01:28;71.87;;;37.83;;
12480;SDS011;6305;48.398;11.762;2024-01-30T01:04:04;74.10;;;38.40;;
12480;SDS011;6305;48.398;11.762;2024-01-30T01:06:44;66.33;;;36.63;;
12480;SDS011;6305;48.398;11.762;2024-01-30T01:09:22;75.17;;;38.10;;
12480;SDS011;6305;48.398;11.762;2024-01-30T01:11:55;65.70;;;35.83;;
12480;SDS011;6305;48.398;11.762;2024-01-30T01:14:28;74.27;;;37.53;;
12480;SDS011;6305;48.398;11.762;2024-01-30T01:16:55;70.37;;;38.27;;
12480;SDS011;6305;48.398;11.762;2024-01-30T01:19:33;70.77;;;38.53;;
12480;SDS011;6305;48.398;11.762;2024-01-30T01:22:03;75.87;;;38.87;;
12480;SDS011;6305;48.398;11.762;2024-01-30T01:24:40;71.27;;;38.37;;
12480;SDS011;6305;48.398;11.762;2024-01-30T01:27:16;76.33;;;39.63;;
12480;SDS011;6305;48.398;11.762;2024-01-30T01:30:02;72.67;;;38.50;;
12480;SDS011;6305;48.398;11.762;2024-01-30T01:32:36;67.60;;;38.47;;
12480;SDS011;6305;48.398;11.762;2024-01-30T01:35:05;73.13;;;37.93;;
12480;SDS011;6305;48.398;11.762;2024-01-30T01:37:38;70.70;;;37.47;;
12480;SDS011;6305;48.398;11.762;2024-01-30T01:40:22;73.10;;;38.00;;
12480;SDS011;6305;48.398;11.762;2024-01-30T01:43:08;75.33;;;40.27;;
12480;SDS011;6305;48.398;11.762;2024-01-30T01:45:46;72.47;;;39.07;;
12480;SDS011;6305;48.398;11.762;2024-01-30T01:48:30;75.53;;;39.63;;
12480;SDS011;6305;48.398;11.762;2024-01-30T01:51:09;78.13;;;40.77;;
12480;SDS011;6305;48.398;11.762;2024-01-30T01:53:40;80.70;;;43.30;;
12480;SDS011;6305;48.398;11.762;2024-01-30T01:56:16;78.00;;;41.33;;
12480;SDS011;6305;48.398;11.762;2024-01-30T01:58:52;77.67;;;41.27;;
12480;SDS011;6305;48.398;11.762;2024-01-30T02:01:26;76.77;;;41.57;;
12480;SDS011;6305;48.398;11.762;2024-01-30T02:03:55;79.63;;;40.37;;
12480;SDS011;6305;48.398;11.762;2024-01-30T02:06:26;78.33;;;40.10;;
12480;SDS011;6305;48.398;11.762;2024-01-30T02:08:53;75.40;;;39.80;;
12480;SDS011;6305;48.398;11.762;2024-01-30T02:11:22;81.83;;;39.87;;
12480;SDS011;6305;48.398;11.762;2024-01-30T02:13:54;87.43;;;41.17;;
12480;SDS011;6305;48.398;11.762;2024-01-30T02:16:24;80.90;;;40.97;;
12480;SDS011;6305;48.398;11.762;2024-01-30T02:18:56;80.93;;;40.03;;
12480;SDS011;6305;48.398;11.762;2024-01-30T02:21:34;80.67;;;42.00;;
12480;SDS011;6305;48.398;11.762;2024-01-30T02:24:10;85.10;;;43.27;;
12480;SDS011;6305;48.398;11.762;2024-01-30T02:26:39;87.53;;;43.57;;
12480;SDS011;6305;48.398;11.762;2024-01-30T02:29:08;87.07;;;44.47;;
12480;SDS011;6305;48.398;11.762;2024-01-30T02:31:39;84.87;;;44.93;;
12480;SDS011;6305;48.398;11.762;2024-01-30T02:34:18;87.87;;;43.77;;
12480;SDS011;6305;48.398;11.762;2024-01-30T02:36:52;87.70;;;42.83;;
12480;SDS011;6305;48.398;11.762;2024-01-30T02:39:43;84.93;;;42.47;;
12480;SDS011;6305;48.398;11.762;2024-01-30T02:42:21;75.63;;;41.33;;
12480;SDS011;6305;48.398;11.762;2024-01-30T02:45:00;86.43;;;42.43;;
12480;SDS011;6305;48.398;11.762;2024-01-30T02:47:29;77.63;;;42.53;;
12480;SDS011;6305;48.398;11.762;2024-01-30T02:50:13;89.50;;;43.80;;
12480;SDS011;6305;48.398;11.762;2024-01-30T02:52:48;79.73;;;42.00;;
12480;SDS011;6305;48.398;11.762;2024-01-30T02:55:24;80.10;;;41.03;;
12480;SDS011;6305;48.398;11.762;2024-01-30T02:58:19;89.10;;;44.10;;
12480;SDS011;6305;48.398;11.762;2024-01-30T03:01:15;93.30;;;44.83;;
12480;SDS011;6305;48.398;11.762;2024-01-30T03:04:11;92.93;;;45.77;;
12480;SDS011;6305;48.398;11.762;2024-01-30T03:06:47;87.00;;;43.90;;
12480;SDS011;6305;48.398;11.762;2024-01-30T03:09:24;84.50;;;43.57;;
12480;SDS011;6305;48.398;11.762;2024-01-30T03:11:57;89.93;;;44.30;;
12480;SDS011;6305;48.398;11.762;2024-01-30T03:14:35;97.87;;;47.47;;
12480;SDS011;6305;48.398;11.762;2024-01-30T03:17:08;86.77;;;45.40;;
12480;SDS011;6305;48.398;11.762;2024-01-30T03:19:38;94.20;;;45.53;;
12480;SDS011;6305;48.398;11.762;2024-01-30T03:22:09;85.97;;;43.73;;
12480;SDS011;6305;48.398;11.762;2024-01-30T03:24:45;94.83;;;45.23;;
12480;SDS011;6305;48.398;11.762;2024-01-30T03:27:27;91.40;;;43.43;;
12480;SDS011;6305;48.398;11.762;2024-01-30T03:29:54;92.77;;;44.37;;
12480;SDS011;6305;48.398;11.762;2024-01-30T03:32:34;92.57;;;46.30;;
12480;SDS011;6305;48.398;11.762;2024-01-30T03:35:12;104.00;;;48.07;;
12480;SDS011;6305;48.398;11.762;2024-01-30T03:37:48;89.20;;;44.97;;
12480;SDS011;6305;48.398;11.762;2024-01-30T03:40:21;91.30;;;44.87;;
12480;SDS011;6305;48.398;11.762;2024-01-30T03:42:59;89.93;;;45.17;;
12480;SDS011;6305;48.398;11.762;2024-01-30T03:45:34;99.10;;;47.73;;
12480;SDS011;6305;48.398;11.762;2024-01-30T03:48:07;106.47;;;48.17;;
12480;SDS011;6305;48.398;11.762;2024-01-30T03:50:41;103.27;;;50.20;;
12480;SDS011;6305;48.398;11.762;2024-01-30T03:53:27;101.87;;;49.60;;
12480;SDS011;6305;48.398;11.762;2024-01-30T03:56:05;102.77;;;49.07;;
12480;SDS011;6305;48.398;11.762;2024-01-30T03:58:42;108.40;;;51.03;;
12480;SDS011;6305;48.398;11.762;2024-01-30T04:01:36;97.67;;;48.30;;
12480;SDS011;6305;48.398;11.762;2024-01-30T04:04:21;93.90;;;46.13;;
12480;SDS011;6305;48.398;11.762;2024-01-30T04:06:51;90.97;;;45.57;;
12480;SDS011;6305;48.398;11.762;2024-01-30T04:09:29;97.43;;;46.77;;
12480;SDS011;6305;48.398;11.762;2024-01-30T04:12:03;99.87;;;48.30;;
12480;SDS011;6305;48.398;11.762;2024-01-30T04:14:40;92.50;;;46.77;;
12480;SDS011;6305;48.398;11.762;2024-01-30T04:17:23;91.63;;;47.00;;
12480;SDS011;6305;48.398;11.762;2024-01-30T04:20:04;92.07;;;46.27;;
12480;SDS011;6305;48.398;11.762;2024-01-30T04:22:37;99.70;;;48.30;;
12480;SDS011;6305;48.398;11.762;2024-01-30T04:25:15;98.23;;;47.43;;
12480;SDS011;6305;48.398;11.762;2024-01-30T04:27:47;86.97;;;46.13;;
12480;SDS011;6305;48.398;11.762;2024-01-30T04:30:19;92.77;;;46.53;;
12480;SDS011;6305;48.398;11.762;2024-01-30T04:32:54;97.57;;;48.50;;
12480;SDS011;6305;48.398;11.762;2024-01-30T04:35:22;90.13;;;48.93;;
12480;SDS011;6305;48.398;11.762;2024-01-30T04:38:05;97.97;;;49.70;;
12480;SDS011;6305;48.398;11.762;2024-01-30T04:40:44;96.90;;;46.47;;
12480;SDS011;6305;48.398;11.762;2024-01-30T04:43:22;99.73;;;47.43;;
12480;SDS011;6305;48.398;11.762;2024-01-30T04:45:50;97.37;;;49.33;;
12480;SDS011;6305;48.398;11.762;2024-01-30T04:48:27;98.37;;;48.67;;
12480;SDS011;6305;48.398;11.762;2024-01-30T04:50:57;97.03;;;46.37;;
12480;SDS011;6305;48.398;11.762;2024-01-30T04:53:29;96.30;;;47.40;;
12480;SDS011;6305;48.398;11.762;2024-01-30T04:56:02;94.77;;;47.73;;
12480;SDS011;6305;48.398;11.762;2024-01-30T04:58:37;93.53;;;46.83;;
12480;SDS011;6305;48.398;11.762;2024-01-30T05:01:07;92.27;;;46.87;;
12480;SDS011;6305;48.398;11.762;2024-01-30T05:03:51;90.03;;;45.27;;
12480;SDS011;6305;48.398;11.762;2024-01-30T05:06:24;90.77;;;46.70;;
12480;SDS011;6305;48.398;11.762;2024-01-30T05:09:05;92.97;;;47.00;;
12480;SDS011;6305;48.398;11.762;2024-01-30T05:11:55;92.90;;;47.17;;
12480;SDS011;6305;48.398;11.762;2024-01-30T05:14:29;95.77;;;47.03;;
12480;SDS011;6305;48.398;11.762;2024-01-30T05:17:01;101.67;;;50.73;;
12480;SDS011;6305;48.398;11.762;2024-01-30T05:19:38;94.43;;;48.57;;
12480;SDS011;6305;48.398;11.762;2024-01-30T05:23:02;100.00;;;48.70;;
12480;SDS011;6305;48.398;11.762;2024-01-30T05:25:55;95.17;;;47.63;;
12480;SDS011;6305;48.398;11.762;2024-01-30T05:28:54;96.77;;;48.57;;
12480;SDS011;6305;48.398;11.762;2024-01-30T05:31:34;94.90;;;47.60;;
12480;SDS011;6305;48.398;11.762;2024-01-30T05:34:10;98.03;;;47.23;;
12480;SDS011;6305;48.398;11.762;2024-01-30T05:36:52;96.30;;;47.03;;
12480;SDS011;6305;48.398;11.762;2024-01-30T05:39:25;93.20;;;47.77;;
12480;SDS011;6305;48.398;11.762;2024-01-30T05:42:09;97.87;;;48.73;;
12480;SDS011;6305;48.398;11.762;2024-01-30T05:44:52;104.93;;;50.10;;
12480;SDS011;6305;48.398;11.762;2024-01-30T05:47:23;99.90;;;48.00;;
12480;SDS011;6305;48.398;11.762;2024-01-30T05:49:56;95.80;;;49.60;;
12480;SDS011;6305;48.398;11.762;2024-01-30T05:52:24;99.40;;;50.00;;
12480;SDS011;6305;48.398;11.762;2024-01-30T05:55:08;101.77;;;50.93;;
12480;SDS011;6305;48.398;11.762;2024-01-30T05:57:43;108.03;;;52.63;;
12480;SDS011;6305;48.398;11.762;2024-01-30T06:00:27;106.87;;;52.53;;
12480;SDS011;6305;48.398;11.762;2024-01-30T06:03:00;109.70;;;52.67;;
12480;SDS011;6305;48.398;11.762;2024-01-30T06:05:28;113.37;;;53.20;;
12480;SDS011;6305;48.398;11.762;2024-01-30T06:07:58;107.73;;;52.70;;
12480;SDS011;6305;48.398;11.762;2024-01-30T06:10:33;107.40;;;52.63;;
12480;SDS011;6305;48.398;11.762;2024-01-30T06:13:12;104.23;;;53.03;;
12480;SDS011;6305;48.398;11.762;2024-01-30T06:15:44;107.07;;;51.40;;
12480;SDS011;6305;48.398;11.762;2024-01-30T06:18:22;105.60;;;52.40;;
12480;SDS011;6305;48.398;11.762;2024-01-30T06:20:55;99.50;;;52.00;;
12480;SDS011;6305;48.398;11.762;2024-01-30T06:23:27;100.73;;;50.37;;
12480;SDS011;6305;48.398;11.762;2024-01-30T06:26:06;111.33;;;53.17;;
12480;SDS011;6305;48.398;11.762;2024-01-30T06:28:46;106.63;;;52.07;;
12480;SDS011;6305;48.398;11.762;2024-01-30T06:31:28;117.87;;;54.90;;
12480;SDS011;6305;48.398;11.762;2024-01-30T06:34:12;107.07;;;51.27;;
12480;SDS011;6305;48.398;11.762;2024-01-30T06:36:39;106.80;;;52.80;;
12480;SDS011;6305;48.398;11.762;2024-01-30T06:39:15;110.43;;;52.60;;
12480;SDS011;6305;48.398;11.762;2024-01-30T06:41:51;106.80;;;51.20;;
12480;SDS011;6305;48.398;11.762;2024-01-30T06:44:29;107.77;;;52.73;;
12480;SDS011;6305;48.398;11.762;2024-01-30T06:46:57;107.07;;;51.70;;
12480;SDS011;6305;48.398;11.762;2024-01-30T06:49:33;114.67;;;54.87;;
12480;SDS011;6305;48.398;11.762;2024-01-30T06:52:06;116.90;;;53.80;;
12480;SDS011;6305;48.398;11.762;2024-01-30T06:54:42;115.33;;;55.77;;
12480;SDS011;6305;48.398;11.762;2024-01-30T06:57:15;114.47;;;56.63;;
12480;SDS011;6305;48.398;11.762;2024-01-30T06:59:49;110.57;;;54.33;;
12480;SDS011;6305;48.398;11.762;2024-01-30T07:02:26;112.60;;;56.10;;
12480;SDS011;6305;48.398;11.762;2024-01-30T07:05:06;114.20;;;54.93;;
12480;SDS011;6305;48.398;11.762;2024-01-30T07:07:39;110.97;;;54.67;;
12480;SDS011;6305;48.398;11.762;2024-01-30T07:10:18;105.67;;;53.47;;
12480;SDS011;6305;48.398;11.762;2024-01-30T07:12:51;115.90;;;54.70;;
12480;SDS011;6305;48.398;11.762;2024-01-30T07:15:25;123.10;;;59.53;;
12480;SDS011;6305;48.398;11.762;2024-01-30T07:18:04;136.97;;;60.63;;
12480;SDS011;6305;48.398;11.762;2024-01-30T07:20:37;131.27;;;60.17;;
12480;SDS011;6305;48.398;11.762;2024-01-30T07:23:16;125.23;;;58.07;;
12480;SDS011;6305;48.398;11.762;2024-01-30T07:25:55;129.20;;;58.23;;
12480;SDS011;6305;48.398;11.762;2024-01-30T07:28:25;127.17;;;56.33;;
12480;SDS011;6305;48.398;11.762;2024-01-30T07:31:00;128.70;;;54.63;;
12480;SDS011;6305;48.398;11.762;2024-01-30T07:33:35;111.93;;;52.40;;
12480;SDS011;6305;48.398;11.762;2024-01-30T07:36:13;111.07;;;52.40;;
12480;SDS011;6305;48.398;11.762;2024-01-30T07:38:59;109.67;;;49.80;;
12480;SDS011;6305;48.398;11.762;2024-01-30T07:41:31;112.90;;;49.93;;
12480;SDS011;6305;48.398;11.762;2024-01-30T07:44:02;106.50;;;49.63;;
12480;SDS011;6305;48.398;11.762;2024-01-30T07:46:41;105.70;;;50.13;;
12480;SDS011;6305;48.398;11.762;2024-01-30T07:49:22;107.80;;;48.97;;
12480;SDS011;6305;48.398;11.762;2024-01-30T07:51:58;114.17;;;50.83;;
12480;SDS011;6305;48.398;11.762;2024-01-30T07:54:33;98.50;;;48.43;;
12480;SDS011;6305;48.398;11.762;2024-01-30T07:57:05;96.03;;;46.20;;
12480;SDS011;6305;48.398;11.762;2024-01-30T07:59:38;106.60;;;47.03;;
12480;SDS011;6305;48.398;11.762;2024-01-30T08:02:16;95.10;;;47.57;;
12480;SDS011;6305;48.398;11.762;2024-01-30T08:04:48;110.57;;;51.17;;
12480;SDS011;6305;48.398;11.762;2024-01-30T08:07:24;104.67;;;52.33;;
12480;SDS011;6305;48.398;11.762;2024-01-30T08:09:58;104.33;;;54.13;;
12480;SDS011;6305;48.398;11.762;2024-01-30T08:12:28;104.28;;;54.65;;
12480;SDS011;6305;48.398;11.762;2024-01-30T08:15:05;98.90;;;55.75;;
12480;SDS011;6305;48.398;11.762;2024-01-30T08:17:45;92.38;;;51.40;;
12480;SDS011;6305;48.398;11.762;2024-01-30T08:20:21;70.90;;;43.88;;
12480;SDS011;6305;48.398;11.762;2024-01-30T08:22:53;53.55;;;34.40;;
12480;SDS011;6305;48.398;11.762;2024-01-30T08:25:20;40.90;;;27.77;;
12480;SDS011;6305;48.398;11.762;2024-01-30T08:27:56;31.50;;;22.40;;
12480;SDS011;6305;48.398;11.762;2024-01-30T08:30:35;22.90;;;18.60;;
12480;SDS011;6305;48.398;11.762;2024-01-30T08:33:06;22.10;;;16.98;;
12480;SDS011;6305;48.398;11.762;2024-01-30T08:35:38;22.08;;;16.02;;
12480;SDS011;6305;48.398;11.762;2024-01-30T08:38:14;21.10;;;14.05;;
12480;SDS011;6305;48.398;11.762;2024-01-30T08:40:44;17.73;;;12.95;;
12480;SDS011;6305;48.398;11.762;2024-01-30T08:43:14;15.07;;;11.80;;
12480;SDS011;6305;48.398;11.762;2024-01-30T08:45:42;16.60;;;11.23;;
12480;SDS011;6305;48.398;11.762;2024-01-30T08:48:21;12.00;;;10.10;;
12480;SDS011;6305;48.398;11.762;2024-01-30T08:50:54;14.60;;;10.60;;
12480;SDS011;6305;48.398;11.762;2024-01-30T08:53:34;15.48;;;10.82;;
12480;SDS011;6305;48.398;11.762;2024-01-30T08:56:25;17.23;;;12.07;;
12480;SDS011;6305;48.398;11.762;2024-01-30T08:59:11;14.07;;;10.60;;
12480;SDS011;6305;48.398;11.762;2024-01-30T09:01:49;15.02;;;11.75;;
12480;SDS011;6305;48.398;11.762;2024-01-30T09:04:29;17.67;;;14.07;;
12480;SDS011;6305;48.398;11.762;2024-01-30T09:07:03;16.58;;;13.07;;
12480;SDS011;6305;48.398;11.762;2024-01-30T09:09:47;16.13;;;13.82;;
12480;SDS011;6305;48.398;11.762;2024-01-30T09:12:18;13.77;;;11.20;;
12480;SDS011;6305;48.398;11.762;2024-01-30T09:14:51;13.13;;;11.73;;
12480;SDS011;6305;48.398;11.762;2024-01-30T09:17:20;13.75;;;10.05;;
12480;SDS011;6305;48.398;11.762;2024-01-30T09:19:58;14.25;;;9.95;;
12480;SDS011;6305;48.398;11.762;2024-01-30T09:22:25;12.82;;;9.10;;
12480;SDS011;6305;48.398;11.762;2024-01-30T09:25:08;11.57;;;9.77;;
12480;SDS011;6305;48.398;11.762;2024-01-30T09:27:41;11.50;;;9.40;;
12480;SDS011;6305;48.398;11.762;2024-01-30T09:30:14;12.20;;;9.18;;
12480;SDS011;6305;48.398;11.762;2024-01-30T09:32:44;12.82;;;8.70;;
12480;SDS011;6305;48.398;11.762;2024-01-30T09:35:20;13.82;;;10.77;;
12480;SDS011;6305;48.398;11.762;2024-01-30T09:37:53;23.13;;;16.88;;
12480;SDS011;6305;48.398;11.762;2024-01-30T09:40:28;12.23;;;9.65;;
12480;SDS011;6305;48.398;11.762;2024-01-30T09:43:09;13.70;;;9.85;;
12480;SDS011;6305;48.398;11.762;2024-01-30T09:45:53;12.35;;;10.13;;
12480;SDS011;6305;48.398;11.762;2024-01-30T09:48:29;13.95;;;10.07;;
12480;SDS011;6305;48.398;11.762;2024-01-30T09:50:58;13.10;;;10.40;;
12480;SDS011;6305;48.398;11.762;2024-01-30T09:53:30;16.13;;;12.68;;
12480;SDS011;6305;48.398;11.762;2024-01-30T09:56:08;12.27;;;10.23;;
12480;SDS011;6305;48.398;11.762;2024-01-30T09:58:47;12.57;;;9.98;;
12480;SDS011;6305;48.398;11.762;2024-01-30T10:01:22;11.00;;;9.15;;
12480;SDS011;6305;48.398;11.762;2024-01-30T10:04:10;11.52;;;8.70;;
12480;SDS011;6305;48.398;11.762;2024-01-30T10:06:58;10.82;;;9.73;;
12480;SDS011;6305;48.398;11.762;2024-01-30T10:09:39;12.60;;;9.15;;
12480;SDS011;6305;48.398;11.762;2024-01-30T10:12:40;11.55;;;9.02;;
12480;SDS011;6305;48.398;11.762;2024-01-30T10:15:12;13.23;;;9.02;;
12480;SDS011;6305;48.398;11.762;2024-01-30T10:18:01;11.25;;;9.05;;
12480;SDS011;6305;48.398;11.762;2024-01-30T10:20:37;9.48;;;8.45;;
12480;SDS011;6305;48.398;11.762;2024-01-30T10:23:12;10.68;;;8.85;;
12480;SDS011;6305;48.398;11.762;2024-01-30T10:25:48;10.82;;;9.40;;
12480;SDS011;6305;48.398;11.762;2024-01-30T10:28:32;9.25;;;7.72;;
12480;SDS011;6305;48.398;11.762;2024-01-30T10:31:05;8.88;;;7.65;;
12480;SDS011;6305;48.398;11.762;2024-01-30T10:33:51;8.80;;;7.90;;
12480;SDS011;6305;48.398;11.762;2024-01-30T10:36:20;10.25;;;7.85;;
12480;SDS011;6305;48.398;11.762;2024-01-30T10:38:58;10.23;;;8.90;;
12480;SDS011;6305;48.398;11.762;2024-01-30T10:41:36;9.95;;;8.75;;
12480;SDS011;6305;48.398;11.762;2024-01-30T10:44:18;10.15;;;8.68;;
12480;SDS011;6305;48.398;11.762;2024-01-30T10:47:18;9.05;;;8.15;;
12480;SDS011;6305;48.398;11.762;2024-01-30T10:50:18;9.60;;;8.55;;
12480;SDS011;6305;48.398;11.762;2024-01-30T10:52:53;12.13;;;8.63;;
12480;SDS011;6305;48.398;11.762;2024-01-30T10:55:36;10.38;;;8.68;;
12480;SDS011;6305;48.398;11.762;2024-01-30T10:58:10;9.15;;;8.05;;
12480;SDS011;6305;48.398;11.762;2024-01-30T11:00:49;11.20;;;10.00;;
12480;SDS011;6305;48.398;11.762;2024-01-30T11:03:28;11.43;;;8.95;;
12480;SDS011;6305;48.398;11.762;2024-01-30T11:06:00;11.43;;;9.10;;
12480;SDS011;6305;48.398;11.762;2024-01-30T11:08:35;10.23;;;9.18;;
12480;SDS011;6305;48.398;11.762;2024-01-30T11:11:12;10.60;;;8.77;;
12480;SDS011;6305;48.398;11.762;2024-01-30T11:13:44;9.88;;;8.77;;
12480;SDS011;6305;48.398;11.762;2024-01-30T11:16:13;10.25;;;9.13;;
12480;SDS011;6305;48.398;11.762;2024-01-30T11:18:40;9.57;;;8.57;;
12480;SDS011;6305;48.398;11.762;2024-01-30T11:21:07;11.38;;;8.50;;
12480;SDS011;6305;48.398;11.762;2024-01-30T11:23:34;10.32;;;7.78;;
12480;SDS011;6305;48.398;11.762;2024-01-30T11:26:02;9.05;;;8.13;;
12480;SDS011;6305;48.398;11.762;2024-01-30T11:28:32;9.82;;;8.63;;
12480;SDS011;6305;48.398;11.762;2024-01-30T11:31:04;9.75;;;8.85;;
12480;SDS011;6305;48.398;11.762;2024-01-30T11:33:34;11.55;;;9.13;;
12480;SDS011;6305;48.398;11.762;2024-01-30T11:36:01;11.13;;;9.85;;
12480;SDS011;6305;48.398;11.762;2024-01-30T11:38:28;10.82;;;8.32;;
12480;SDS011;6305;48.398;11.762;2024-01-30T11:40:55;9.05;;;8.13;;
12480;SDS011;6305;48.398;11.762;2024-01-30T11:43:23;9.70;;;8.05;;
12480;SDS011;6305;48.398;11.762;2024-01-30T11:45:50;11.90;;;8.32;;
12480;SDS011;6305;48.398;11.762;2024-01-30T11:48:17;10.98;;;8.40;;
12480;SDS011;6305;48.398;11.762;2024-01-30T11:50:46;10.35;;;9.25;;
12480;SDS011;6305;48.398;11.762;2024-01-30T11:53:15;10.65;;;8.40;;
12480;SDS011;6305;48.398;11.762;2024-01-30T11:55:47;10.07;;;8.18;;
12480;SDS011;6305;48.398;11.762;2024-01-30T11:58:16;9.13;;;8.25;;
12480;SDS011;6305;48.398;11.762;2024-01-30T12:00:52;9.52;;;7.80;;
12480;SDS011;6305;48.398;11.762;2024-01-30T12:03:21;9.18;;;7.68;;
12480;SDS011;6305;48.398;11.762;2024-01-30T12:05:55;10.00;;;8.00;;
12480;SDS011;6305;48.398;11.762;2024-01-30T12:08:23;10.95;;;8.02;;
12480;SDS011;6305;48.398;11.762;2024-01-30T12:10:55;8.65;;;7.70;;
12480;SDS011;6305;48.398;11.762;2024-01-30T12:13:23;7.82;;;7.00;;
12480;SDS011;6305;48.398;11.762;2024-01-30T12:15:50;8.48;;;5.47;;
12480;SDS011;6305;48.398;11.762;2024-01-30T12:18:18;7.93;;;4.85;;
12480;SDS011;6305;48.398;11.762;2024-01-30T12:20:47;5.80;;;4.50;;
12480;SDS011;6305;48.398;11.762;2024-01-30T12:23:25;6.20;;;4.50;;
12480;SDS011;6305;48.398;11.762;2024-01-30T12:25:53;12.15;;;6.15;;
12480;SDS011;6305;48.398;11.762;2024-01-30T12:28:20;7.43;;;5.20;;
12480;SDS011;6305;48.398;11.762;2024-01-30T12:30:47;6.32;;;4.55;;
12480;SDS011;6305;48.398;11.762;2024-01-30T12:33:16;5.65;;;4.15;;
12480;SDS011;6305;48.398;11.762;2024-01-30T12:35:47;5.30;;;4.32;;
12480;SDS011;6305;48.398;11.762;2024-01-30T12:38:18;4.70;;;3.88;;
12480;SDS011;6305;48.398;11.762;2024-01-30T12:40:45;6.13;;;3.83;;
12480;SDS011;6305;48.398;11.762;2024-01-30T12:43:13;7.15;;;4.03;;
12480;SDS011;6305;48.398;11.762;2024-01-30T12:45:41;4.93;;;3.90;;
12480;SDS011;6305;48.398;11.762;2024-01-30T12:48:08;6.60;;;3.80;;
12480;SDS011;6305;48.398;11.762;2024-01-30T12:50:35;7.70;;;4.90;;
12480;SDS011;6305;48.398;11.762;2024-01-30T12:53:03;6.38;;;4.75;;
12480;SDS011;6305;48.398;11.762;2024-01-30T12:55:33;7.82;;;5.40;;
12480;SDS011;6305;48.398;11.762;2024-01-30T12:58:00;5.38;;;4.72;;
12480;SDS011;6305;48.398;11.762;2024-01-30T13:00:28;8.25;;;5.20;;
12480;SDS011;6305;48.398;11.762;2024-01-30T13:02:55;7.25;;;4.75;;
12480;SDS011;6305;48.398;11.762;2024-01-30T13:05:22;8.38;;;5.28;;
12480;SDS011;6305;48.398;11.762;2024-01-30T13:07:50;7.97;;;5.05;;
12480;SDS011;6305;48.398;11.762;2024-01-30T13:10:22;6.68;;;4.72;;
12480;SDS011;6305;48.398;11.762;2024-01-30T13:12:51;7.70;;;4.80;;
12480;SDS011;6305;48.398;11.762;2024-01-30T13:15:18;12.18;;;7.45;;
12480;SDS011;6305;48.398;11.762;2024-01-30T13:17:45;6.82;;;5.95;;
12480;SDS011;6305;48.398;11.762;2024-01-30T13:20:13;9.05;;;6.22;;
12480;SDS011;6305;48.398;11.762;2024-01-30T13:22:42;7.05;;;5.22;;
12480;SDS011;6305;48.398;11.762;2024-01-30T13:25:09;13.18;;;7.90;;
12480;SDS011;6305;48.398;11.762;2024-01-30T13:27:36;10.90;;;8.82;;
12480;SDS011;6305;48.398;11.762;2024-01-30T13:30:06;18.77;;;12.98;;
12480;SDS011;6305;48.398;11.762;2024-01-30T13:32:34;9.45;;;7.05;;
12480;SDS011;6305;48.398;11.762;2024-01-30T13:35:01;7.63;;;5.75;;
12480;SDS011;6305;48.398;11.762;2024-01-30T13:37:28;8.68;;;6.63;;
12480;SDS011;6305;48.398;11.762;2024-01-30T13:39:55;8.40;;;6.65;;
12480;SDS011;6305;48.398;11.762;2024-01-30T13:42:22;8.45;;;6.53;;
12480;SDS011;6305;48.398;11.762;2024-01-30T13:44:49;10.38;;;7.75;;
12480;SDS011;6305;48.398;11.762;2024-01-30T13:47:18;8.73;;;7.20;;
12480;SDS011;6305;48.398;11.762;2024-01-30T13:49:46;10.30;;;7.15;;
12480;SDS011;6305;48.398;11.762;2024-01-30T13:52:14;9.93;;;7.00;;
12480;SDS011;6305;48.398;11.762;2024-01-30T13:54:40;9.35;;;6.75;;
12480;SDS011;6305;48.398;11.762;2024-01-30T13:57:08;9.10;;;6.90;;
12480;SDS011;6305;48.398;11.762;2024-01-30T13:59:35;7.72;;;6.93;;
12480;SDS011;6305;48.398;11.762;2024-01-30T14:02:02;8.23;;;6.32;;
12480;SDS011;6305;48.398;11.762;2024-01-30T14:04:30;7.10;;;6.40;;
12480;SDS011;6305;48.398;11.762;2024-01-30T14:06:57;8.35;;;6.88;;
12480;SDS011;6305;48.398;11.762;2024-01-30T14:09:24;7.95;;;6.80;;
12480;SDS011;6305;48.398;11.762;2024-01-30T14:11:51;8.45;;;6.55;;
12480;SDS011;6305;48.398;11.762;2024-01-30T14:14:18;8.57;;;6.20;;
12480;SDS011;6305;48.398;11.762;2024-01-30T14:16:45;9.65;;;6.55;;
12480;SDS011;6305;48.398;11.762;2024-01-30T14:19:12;7.13;;;6.03;;
12480;SDS011;6305;48.398;11.762;2024-01-30T14:21:40;9.45;;;6.75;;
12480;SDS011;6305;48.398;11.762;2024-01-30T14:24:07;8.93;;;6.70;;
12480;SDS011;6305;48.398;11.762;2024-01-30T14:26:35;13.25;;;8.15;;
12480;SDS011;6305;48.398;11.762;2024-01-30T14:29:02;12.80;;;8.10;;
12480;SDS011;6305;48.398;11.762;2024-01-30T14:31:29;12.40;;;8.98;;
12480;SDS011;6305;48.398;11.762;2024-01-30T14:33:56;11.52;;;8.63;;
12480;SDS011;6305;48.398;11.762;2024-01-30T14:36:24;11.55;;;8.57;;
12480;SDS011;6305;48.398;11.762;2024-01-30T14:38:54;12.32;;;7.78;;
12480;SDS011;6305;48.398;11.762;2024-01-30T14:41:21;10.23;;;7.72;;
12480;SDS011;6305;48.398;11.762;2024-01-30T14:43:48;12.30;;;8.82;;
12480;SDS011;6305;48.398;11.762;2024-01-30T14:46:15;12.77;;;9.30;;
12480;SDS011;6305;48.398;11.762;2024-01-30T14:48:43;11.82;;;9.20;;
12480;SDS011;6305;48.398;11.762;2024-01-30T14:51:10;10.93;;;8.73;;
12480;SDS011;6305;48.398;11.762;2024-01-30T14:53:37;10.23;;;8.57;;
12480;SDS011;6305;48.398;11.762;2024-01-30T14:56:05;12.48;;;8.43;;
12480;SDS011;6305;48.398;11.762;2024-01-30T14:58:33;10.85;;;7.85;;
12480;SDS011;6305;48.398;11.762;2024-01-30T15:01:00;10.13;;;7.68;;
12480;SDS011;6305;48.398;11.762;2024-01-30T15:03:27;12.55;;;7.32;;
12480;SDS011;6305;48.398;11.762;2024-01-30T15:05:54;11.02;;;7.65;;
12480;SDS011;6305;48.398;11.762;2024-01-30T15:08:21;9.70;;;7.55;;